sensor_id;sensor_type;location;lat;lon;timestamp;temperature;humidity
15072;DHT22;7635;56.696;13.002;2023-02-12T00:02:19;1.20;99.90
15072;DHT22;7635;56.696;13.002;2023-02-12T00:04:48;1.20;99.90
15072;DHT22;7635;56.696;13.002;2023-02-12T00:07:14;1.20;99.90
15072;DHT22;7635;56.696;13.002;2023-02-12T00:09:44;1.20;99.90
15072;DHT22;7635;56.696;13.002;2023-02-12T00:12:10;1.20;99.90
15072;DHT22;7635;56.696;13.002;2023-02-12T00:14:37;1.20;99.90
15072;DHT22;7635;56.696;13.002;2023-02-12T00:17:04;1.20;99.90
15072;DHT22;7635;56.696;13.002;2023-02-12T00:19:30;1.20;99.90
15072;DHT22;7635;56.696;13.002;2023-02-12T00:21:58;1.30;99.90
15072;DHT22;7635;56.696;13.002;2023-02-12T00:24:25;1.30;99.90
15072;DHT22;7635;56.696;13.002;2023-02-12T00:26:52;1.30;99.90
15072;DHT22;7635;56.696;13.002;2023-02-12T00:29:19;1.30;99.90
15072;DHT22;7635;56.696;13.002;2023-02-12T00:31:45;1.30;99.90
15072;DHT22;7635;56.696;13.002;2023-02-12T00:34:12;1.30;99.90
15072;DHT22;7635;56.696;13.002;2023-02-12T00:36:39;1.40;99.90
15072;DHT22;7635;56.696;13.002;2023-02-12T00:39:08;1.40;99.90
15072;DHT22;7635;56.696;13.002;2023-02-12T00:41:36;1.40;99.90
15072;DHT22;7635;56.696;13.002;2023-02-12T00:44:02;1.50;99.90
15072;DHT22;7635;56.696;13.002;2023-02-12T00:46:29;1.50;99.90
15072;DHT22;7635;56.696;13.002;2023-02-12T00:48:56;1.50;99.90
15072;DHT22;7635;56.696;13.002;2023-02-12T00:51:23;1.50;99.90
15072;DHT22;7635;56.696;13.002;2023-02-12T00:53:49;1.50;99.90
15072;DHT22;7635;56.696;13.002;2023-02-12T00:56:17;1.60;99.90
15072;DHT22;7635;56.696;13.002;2023-02-12T00:58:44;1.60;99.90
15072;DHT22;7635;56.696;13.002;2023-02-12T01:01:11;1.60;99.90
15072;DHT22;7635;56.696;13.002;2023-02-12T01:03:37;1.60;99.90
15072;DHT22;7635;56.696;13.002;2023-02-12T01:06:04;1.70;99.90
15072;DHT22;7635;56.696;13.002;2023-02-12T01:08:31;1.70;99.90
15072;DHT22;7635;56.696;13.002;2023-02-12T01:11:01;1.70;99.90
15072;DHT22;7635;56.696;13.002;2023-02-12T01:13:31;1.70;99.90
15072;DHT22;7635;56.696;13.002;2023-02-12T01:16:05;1.70;99.90
15072;DHT22;7635;56.696;13.002;2023-02-12T01:18:33;1.70;99.90
15072;DHT22;7635;56.696;13.002;2023-02-12T01:21:00;1.70;99.90
15072;DHT22;7635;56.696;13.002;2023-02-12T01:23:27;1.80;99.90
15072;DHT22;7635;56.696;13.002;2023-02-12T01:25:54;1.80;99.90
15072;DHT22;7635;56.696;13.002;2023-02-12T01:28:20;1.80;99.90
15072;DHT22;7635;56.696;13.002;2023-02-12T01:30:48;1.80;99.90
15072;DHT22;7635;56.696;13.002;2023-02-12T01:33:15;1.80;99.90
15072;DHT22;7635;56.696;13.002;2023-02-12T01:35:41;1.90;99.90
15072;DHT22;7635;56.696;13.002;2023-02-12T01:38:08;1.90;99.90
15072;DHT22;7635;56.696;13.002;2023-02-12T01:40:35;1.90;99.90
15072;DHT22;7635;56.696;13.002;2023-02-12T01:43:02;1.90;99.90
15072;DHT22;7635;56.696;13.002;2023-02-12T01:45:45;1.90;99.90
15072;DHT22;7635;56.696;13.002;2023-02-12T01:48:16;1.90;99.90
15072;DHT22;7635;56.696;13.002;2023-02-12T01:50:44;1.90;99.90
15072;DHT22;7635;56.696;13.002;2023-02-12T01:53:12;1.90;99.90
15072;DHT22;7635;56.696;13.002;2023-02-12T01:55:45;1.90;99.90
15072;DHT22;7635;56.696;13.002;2023-02-12T01:58:13;1.90;99.90
15072;DHT22;7635;56.696;13.002;2023-02-12T02:00:40;2.00;99.90
15072;DHT22;7635;56.696;13.002;2023-02-12T02:03:07;2.00;99.90
15072;DHT22;7635;56.696;13.002;2023-02-12T02:05:40;2.00;99.90
15072;DHT22;7635;56.696;13.002;2023-02-12T02:08:08;1.90;99.90
15072;DHT22;7635;56.696;13.002;2023-02-12T02:10:35;1.90;99.90
15072;DHT22;7635;56.696;13.002;2023-02-12T02:13:02;1.90;99.90
15072;DHT22;7635;56.696;13.002;2023-02-12T02:15:47;2.00;99.90
15072;DHT22;7635;56.696;13.002;2023-02-12T02:18:19;2.00;99.90
15072;DHT22;7635;56.696;13.002;2023-02-12T02:21:18;2.00;99.90
15072;DHT22;7635;56.696;13.002;2023-02-12T02:24:28;2.00;99.90
15072;DHT22;7635;56.696;13.002;2023-02-12T02:27:23;2.10;99.90
15072;DHT22;7635;56.696;13.002;2023-02-12T02:30:21;2.10;99.90
15072;DHT22;7635;56.696;13.002;2023-02-12T02:33:00;2.10;99.90
15072;DHT22;7635;56.696;13.002;2023-02-12T02:35:37;2.10;99.90
15072;DHT22;7635;56.696;13.002;2023-02-12T02:38:18;2.10;99.90
15072;DHT22;7635;56.696;13.002;2023-02-12T02:40:52;2.20;99.90
15072;DHT22;7635;56.696;13.002;2023-02-12T02:43:25;2.20;99.90
15072;DHT22;7635;56.696;13.002;2023-02-12T02:45:56;2.20;99.90
15072;DHT22;7635;56.696;13.002;2023-02-12T02:48:30;2.20;99.90
15072;DHT22;7635;56.696;13.002;2023-02-12T02:51:02;2.20;99.90
15072;DHT22;7635;56.696;13.002;2023-02-12T02:53:34;2.20;99.90
15072;DHT22;7635;56.696;13.002;2023-02-12T02:56:03;2.20;99.90
15072;DHT22;7635;56.696;13.002;2023-02-12T02:58:34;2.20;99.90
15072;DHT22;7635;56.696;13.002;2023-02-12T03:01:08;2.30;99.90
15072;DHT22;7635;56.696;13.002;2023-02-12T03:03:41;2.30;99.90
15072;DHT22;7635;56.696;13.002;2023-02-12T03:06:14;2.30;99.90
15072;DHT22;7635;56.696;13.002;2023-02-12T03:08:46;2.30;99.90
15072;DHT22;7635;56.696;13.002;2023-02-12T03:11:19;2.30;99.90
15072;DHT22;7635;56.696;13.002;2023-02-12T03:13:52;2.30;99.90
15072;DHT22;7635;56.696;13.002;2023-02-12T03:16:25;2.30;99.90
15072;DHT22;7635;56.696;13.002;2023-02-12T03:18:55;2.40;99.90
15072;DHT22;7635;56.696;13.002;2023-02-12T03:21:32;2.40;99.90
15072;DHT22;7635;56.696;13.002;2023-02-12T03:24:06;2.30;99.90
15072;DHT22;7635;56.696;13.002;2023-02-12T03:26:39;2.40;99.90
15072;DHT22;7635;56.696;13.002;2023-02-12T03:29:08;2.40;99.90
15072;DHT22;7635;56.696;13.002;2023-02-12T03:31:44;2.40;99.90
15072;DHT22;7635;56.696;13.002;2023-02-12T03:34:17;2.40;99.90
15072;DHT22;7635;56.696;13.002;2023-02-12T03:36:46;2.40;99.90
15072;DHT22;7635;56.696;13.002;2023-02-12T03:39:27;2.50;99.90
15072;DHT22;7635;56.696;13.002;2023-02-12T03:42:00;2.50;99.90
15072;DHT22;7635;56.696;13.002;2023-02-12T03:44:38;2.50;99.90
15072;DHT22;7635;56.696;13.002;2023-02-12T03:47:20;2.50;99.90
15072;DHT22;7635;56.696;13.002;2023-02-12T03:49:54;2.60;99.90
15072;DHT22;7635;56.696;13.002;2023-02-12T03:52:22;2.60;99.90
15072;DHT22;7635;56.696;13.002;2023-02-12T03:54:49;2.70;99.90
15072;DHT22;7635;56.696;13.002;2023-02-12T03:57:18;2.70;99.90
15072;DHT22;7635;56.696;13.002;2023-02-12T03:59:46;2.80;99.90
15072;DHT22;7635;56.696;13.002;2023-02-12T04:02:17;2.80;99.90
15072;DHT22;7635;56.696;13.002;2023-02-12T04:04:44;2.80;99.90
15072;DHT22;7635;56.696;13.002;2023-02-12T04:07:12;2.90;99.90
15072;DHT22;7635;56.696;13.002;2023-02-12T04:09:39;2.90;99.90
15072;DHT22;7635;56.696;13.002;2023-02-12T04:12:19;2.90;99.90
15072;DHT22;7635;56.696;13.002;2023-02-12T04:14:54;2.90;99.90
15072;DHT22;7635;56.696;13.002;2023-02-12T04:17:36;3.00;99.90
15072;DHT22;7635;56.696;13.002;2023-02-12T04:20:10;3.00;99.90
15072;DHT22;7635;56.696;13.002;2023-02-12T04:22:45;3.00;99.90
15072;DHT22;7635;56.696;13.002;2023-02-12T04:25:21;3.00;99.90
15072;DHT22;7635;56.696;13.002;2023-02-12T04:27:56;3.10;99.90
15072;DHT22;7635;56.696;13.002;2023-02-12T04:30:28;3.10;99.90
15072;DHT22;7635;56.696;13.002;2023-02-12T04:33:01;3.10;99.90
15072;DHT22;7635;56.696;13.002;2023-02-12T04:35:31;3.20;99.90
15072;DHT22;7635;56.696;13.002;2023-02-12T04:38:02;3.20;99.90
15072;DHT22;7635;56.696;13.002;2023-02-12T04:40:33;3.20;99.90
15072;DHT22;7635;56.696;13.002;2023-02-12T04:43:00;3.30;99.90
15072;DHT22;7635;56.696;13.002;2023-02-12T04:45:28;3.30;99.90
15072;DHT22;7635;56.696;13.002;2023-02-12T04:47:56;3.30;99.90
15072;DHT22;7635;56.696;13.002;2023-02-12T04:50:25;3.40;99.90
15072;DHT22;7635;56.696;13.002;2023-02-12T04:52:52;3.40;99.90
15072;DHT22;7635;56.696;13.002;2023-02-12T04:55:18;3.40;99.90
15072;DHT22;7635;56.696;13.002;2023-02-12T04:57:46;3.50;99.90
15072;DHT22;7635;56.696;13.002;2023-02-12T05:00:14;3.50;99.90
15072;DHT22;7635;56.696;13.002;2023-02-12T05:02:41;3.50;99.90
15072;DHT22;7635;56.696;13.002;2023-02-12T05:05:08;3.50;99.90
15072;DHT22;7635;56.696;13.002;2023-02-12T05:07:36;3.50;99.90
15072;DHT22;7635;56.696;13.002;2023-02-12T05:10:02;3.60;99.90
15072;DHT22;7635;56.696;13.002;2023-02-12T05:12:29;3.60;99.90
15072;DHT22;7635;56.696;13.002;2023-02-12T05:14:56;3.60;99.90
15072;DHT22;7635;56.696;13.002;2023-02-12T05:17:23;3.70;99.90
15072;DHT22;7635;56.696;13.002;2023-02-12T05:19:50;3.70;99.90
15072;DHT22;7635;56.696;13.002;2023-02-12T05:22:17;3.70;99.90
15072;DHT22;7635;56.696;13.002;2023-02-12T05:24:45;3.80;99.90
15072;DHT22;7635;56.696;13.002;2023-02-12T05:27:12;3.80;99.90
15072;DHT22;7635;56.696;13.002;2023-02-12T05:29:39;3.90;99.90
15072;DHT22;7635;56.696;13.002;2023-02-12T05:32:06;3.90;99.90
15072;DHT22;7635;56.696;13.002;2023-02-12T05:34:33;3.90;99.90
15072;DHT22;7635;56.696;13.002;2023-02-12T05:37:00;4.00;99.90
15072;DHT22;7635;56.696;13.002;2023-02-12T05:39:27;4.00;99.90
15072;DHT22;7635;56.696;13.002;2023-02-12T05:41:55;4.00;99.90
15072;DHT22;7635;56.696;13.002;2023-02-12T05:44:21;4.00;99.90
15072;DHT22;7635;56.696;13.002;2023-02-12T05:46:48;4.10;99.90
15072;DHT22;7635;56.696;13.002;2023-02-12T05:49:15;4.10;99.90
15072;DHT22;7635;56.696;13.002;2023-02-12T05:51:41;4.10;99.90
15072;DHT22;7635;56.696;13.002;2023-02-12T05:54:09;4.10;99.90
15072;DHT22;7635;56.696;13.002;2023-02-12T05:56:40;4.10;99.90
15072;DHT22;7635;56.696;13.002;2023-02-12T05:59:13;4.20;99.90
15072;DHT22;7635;56.696;13.002;2023-02-12T06:01:41;4.20;99.90
15072;DHT22;7635;56.696;13.002;2023-02-12T06:04:13;4.20;99.90
15072;DHT22;7635;56.696;13.002;2023-02-12T06:06:40;4.20;99.90
15072;DHT22;7635;56.696;13.002;2023-02-12T06:09:07;4.20;99.90
15072;DHT22;7635;56.696;13.002;2023-02-12T06:11:34;4.20;99.90
15072;DHT22;7635;56.696;13.002;2023-02-12T06:14:01;4.20;99.90
15072;DHT22;7635;56.696;13.002;2023-02-12T06:16:30;4.20;99.90
15072;DHT22;7635;56.696;13.002;2023-02-12T06:18:57;4.20;99.90
15072;DHT22;7635;56.696;13.002;2023-02-12T06:21:25;4.20;99.90
15072;DHT22;7635;56.696;13.002;2023-02-12T06:23:52;4.30;99.90
15072;DHT22;7635;56.696;13.002;2023-02-12T06:26:20;4.30;99.90
15072;DHT22;7635;56.696;13.002;2023-02-12T06:28:47;4.30;99.90
15072;DHT22;7635;56.696;13.002;2023-02-12T06:31:19;4.30;99.90
15072;DHT22;7635;56.696;13.002;2023-02-12T06:33:47;4.30;99.90
15072;DHT22;7635;56.696;13.002;2023-02-12T06:36:14;4.30;99.90
15072;DHT22;7635;56.696;13.002;2023-02-12T06:38:41;4.30;99.90
15072;DHT22;7635;56.696;13.002;2023-02-12T06:41:08;4.40;99.90
15072;DHT22;7635;56.696;13.002;2023-02-12T06:43:35;4.40;99.90
15072;DHT22;7635;56.696;13.002;2023-02-12T06:46:02;4.40;99.90
15072;DHT22;7635;56.696;13.002;2023-02-12T06:48:29;4.40;99.90
15072;DHT22;7635;56.696;13.002;2023-02-12T06:51:03;4.50;99.90
15072;DHT22;7635;56.696;13.002;2023-02-12T06:53:30;4.50;99.90
15072;DHT22;7635;56.696;13.002;2023-02-12T06:55:59;4.50;99.90
15072;DHT22;7635;56.696;13.002;2023-02-12T06:58:26;4.50;99.90
15072;DHT22;7635;56.696;13.002;2023-02-12T07:00:52;4.60;99.90
15072;DHT22;7635;56.696;13.002;2023-02-12T07:03:19;4.60;99.90
15072;DHT22;7635;56.696;13.002;2023-02-12T07:05:46;4.60;99.90
15072;DHT22;7635;56.696;13.002;2023-02-12T07:08:14;4.60;99.90
15072;DHT22;7635;56.696;13.002;2023-02-12T07:10:42;4.60;99.90
15072;DHT22;7635;56.696;13.002;2023-02-12T07:13:13;4.70;99.90
15072;DHT22;7635;56.696;13.002;2023-02-12T07:15:39;4.60;99.90
15072;DHT22;7635;56.696;13.002;2023-02-12T07:18:06;4.60;99.90
15072;DHT22;7635;56.696;13.002;2023-02-12T07:20:33;4.60;99.90
15072;DHT22;7635;56.696;13.002;2023-02-12T07:22:59;4.60;99.90
15072;DHT22;7635;56.696;13.002;2023-02-12T07:25:27;4.70;99.90
15072;DHT22;7635;56.696;13.002;2023-02-12T07:27:54;4.70;99.90
15072;DHT22;7635;56.696;13.002;2023-02-12T07:30:21;4.70;99.90
15072;DHT22;7635;56.696;13.002;2023-02-12T07:32:47;4.70;99.90
15072;DHT22;7635;56.696;13.002;2023-02-12T07:35:14;4.70;99.90
15072;DHT22;7635;56.696;13.002;2023-02-12T07:37:41;4.70;99.90
15072;DHT22;7635;56.696;13.002;2023-02-12T07:40:08;4.80;99.90
15072;DHT22;7635;56.696;13.002;2023-02-12T07:42:36;4.80;99.90
15072;DHT22;7635;56.696;13.002;2023-02-12T07:45:03;4.80;99.90
15072;DHT22;7635;56.696;13.002;2023-02-12T07:47:30;4.80;99.90
15072;DHT22;7635;56.696;13.002;2023-02-12T07:49:57;4.80;99.90
15072;DHT22;7635;56.696;13.002;2023-02-12T07:52:24;4.90;99.90
15072;DHT22;7635;56.696;13.002;2023-02-12T07:54:50;4.90;99.90
15072;DHT22;7635;56.696;13.002;2023-02-12T07:57:17;4.90;99.90
15072;DHT22;7635;56.696;13.002;2023-02-12T07:59:45;4.90;99.90
15072;DHT22;7635;56.696;13.002;2023-02-12T08:02:12;4.90;99.90
15072;DHT22;7635;56.696;13.002;2023-02-12T08:04:38;4.90;99.90
15072;DHT22;7635;56.696;13.002;2023-02-12T08:07:05;5.00;99.90
15072;DHT22;7635;56.696;13.002;2023-02-12T08:09:31;5.00;99.90
15072;DHT22;7635;56.696;13.002;2023-02-12T08:11:58;5.00;99.90
15072;DHT22;7635;56.696;13.002;2023-02-12T08:14:26;5.00;99.90
15072;DHT22;7635;56.696;13.002;2023-02-12T08:16:54;5.00;99.90
15072;DHT22;7635;56.696;13.002;2023-02-12T08:19:21;5.00;99.90
15072;DHT22;7635;56.696;13.002;2023-02-12T08:21:49;5.10;99.90
15072;DHT22;7635;56.696;13.002;2023-02-12T08:24:15;5.10;99.90
15072;DHT22;7635;56.696;13.002;2023-02-12T08:26:42;5.10;99.90
15072;DHT22;7635;56.696;13.002;2023-02-12T08:29:11;5.10;99.90
15072;DHT22;7635;56.696;13.002;2023-02-12T08:31:39;5.10;99.90
15072;DHT22;7635;56.696;13.002;2023-02-12T08:34:15;5.10;99.90
15072;DHT22;7635;56.696;13.002;2023-02-12T08:36:43;5.10;99.90
15072;DHT22;7635;56.696;13.002;2023-02-12T08:39:10;5.10;99.90
15072;DHT22;7635;56.696;13.002;2023-02-12T08:41:37;5.10;99.90
15072;DHT22;7635;56.696;13.002;2023-02-12T08:44:04;5.10;99.90
15072;DHT22;7635;56.696;13.002;2023-02-12T08:46:33;5.10;99.90
15072;DHT22;7635;56.696;13.002;2023-02-12T08:49:01;5.20;99.90
15072;DHT22;7635;56.696;13.002;2023-02-12T08:51:32;5.20;99.90
15072;DHT22;7635;56.696;13.002;2023-02-12T08:54:01;5.30;99.90
15072;DHT22;7635;56.696;13.002;2023-02-12T08:56:30;5.30;99.90
15072;DHT22;7635;56.696;13.002;2023-02-12T08:58:57;5.30;99.90
15072;DHT22;7635;56.696;13.002;2023-02-12T09:01:26;5.30;99.90
15072;DHT22;7635;56.696;13.002;2023-02-12T09:03:53;5.30;99.90
15072;DHT22;7635;56.696;13.002;2023-02-12T09:06:20;5.40;99.90
15072;DHT22;7635;56.696;13.002;2023-02-12T09:08:49;5.40;99.90
15072;DHT22;7635;56.696;13.002;2023-02-12T09:11:18;5.40;99.90
15072;DHT22;7635;56.696;13.002;2023-02-12T09:13:46;5.50;99.90
15072;DHT22;7635;56.696;13.002;2023-02-12T09:16:13;5.50;99.90
15072;DHT22;7635;56.696;13.002;2023-02-12T09:18:40;5.50;99.90
15072;DHT22;7635;56.696;13.002;2023-02-12T09:21:09;5.50;99.90
15072;DHT22;7635;56.696;13.002;2023-02-12T09:23:37;5.60;99.90
15072;DHT22;7635;56.696;13.002;2023-02-12T09:26:07;5.50;99.90
15072;DHT22;7635;56.696;13.002;2023-02-12T09:28:35;5.60;99.90
15072;DHT22;7635;56.696;13.002;2023-02-12T09:31:04;5.60;99.90
15072;DHT22;7635;56.696;13.002;2023-02-12T09:33:31;5.60;99.90
15072;DHT22;7635;56.696;13.002;2023-02-12T09:36:00;5.60;99.90
15072;DHT22;7635;56.696;13.002;2023-02-12T09:38:27;5.60;99.90
15072;DHT22;7635;56.696;13.002;2023-02-12T09:41:07;5.60;99.90
15072;DHT22;7635;56.696;13.002;2023-02-12T09:43:42;5.70;99.90
15072;DHT22;7635;56.696;13.002;2023-02-12T09:46:13;5.70;99.90
15072;DHT22;7635;56.696;13.002;2023-02-12T09:48:53;5.80;99.90
15072;DHT22;7635;56.696;13.002;2023-02-12T09:51:21;5.80;99.90
15072;DHT22;7635;56.696;13.002;2023-02-12T09:53:55;5.90;99.90
15072;DHT22;7635;56.696;13.002;2023-02-12T09:56:27;5.90;99.90
15072;DHT22;7635;56.696;13.002;2023-02-12T09:58:57;5.90;99.90
15072;DHT22;7635;56.696;13.002;2023-02-12T10:01:26;6.00;99.90
15072;DHT22;7635;56.696;13.002;2023-02-12T10:03:54;6.00;99.90
15072;DHT22;7635;56.696;13.002;2023-02-12T10:06:24;6.10;99.90
15072;DHT22;7635;56.696;13.002;2023-02-12T10:08:58;6.10;99.90
15072;DHT22;7635;56.696;13.002;2023-02-12T10:11:50;6.10;99.90
15072;DHT22;7635;56.696;13.002;2023-02-12T10:14:43;6.10;99.90
15072;DHT22;7635;56.696;13.002;2023-02-12T10:17:17;6.20;99.90
15072;DHT22;7635;56.696;13.002;2023-02-12T10:22:42;6.30;99.90
15072;DHT22;7635;56.696;13.002;2023-02-12T10:25:21;6.30;99.90
15072;DHT22;7635;56.696;13.002;2023-02-12T10:27:53;6.40;99.90
15072;DHT22;7635;56.696;13.002;2023-02-12T10:30:24;6.40;99.90
15072;DHT22;7635;56.696;13.002;2023-02-12T10:32:55;6.50;99.90
15072;DHT22;7635;56.696;13.002;2023-02-12T10:35:24;6.60;99.90
15072;DHT22;7635;56.696;13.002;2023-02-12T10:37:56;6.60;99.90
15072;DHT22;7635;56.696;13.002;2023-02-12T10:40:25;6.60;99.90
15072;DHT22;7635;56.696;13.002;2023-02-12T10:42:56;6.60;99.90
15072;DHT22;7635;56.696;13.002;2023-02-12T10:45:28;6.70;99.90
15072;DHT22;7635;56.696;13.002;2023-02-12T10:48:03;6.70;99.90
15072;DHT22;7635;56.696;13.002;2023-02-12T10:50:40;6.70;99.90
15072;DHT22;7635;56.696;13.002;2023-02-12T10:53:15;6.80;99.90
15072;DHT22;7635;56.696;13.002;2023-02-12T10:55:43;6.90;99.90
15072;DHT22;7635;56.696;13.002;2023-02-12T10:58:19;6.90;99.90
15072;DHT22;7635;56.696;13.002;2023-02-12T11:00:46;7.00;99.90
15072;DHT22;7635;56.696;13.002;2023-02-12T11:03:22;7.10;99.90
15072;DHT22;7635;56.696;13.002;2023-02-12T11:05:49;7.10;99.90
15072;DHT22;7635;56.696;13.002;2023-02-12T11:08:28;7.10;99.90
15072;DHT22;7635;56.696;13.002;2023-02-12T11:11:02;7.10;99.90
15072;DHT22;7635;56.696;13.002;2023-02-12T11:13:31;7.20;99.90
15072;DHT22;7635;56.696;13.002;2023-02-12T11:15:58;7.20;99.90
15072;DHT22;7635;56.696;13.002;2023-02-12T11:18:27;7.20;99.90
15072;DHT22;7635;56.696;13.002;2023-02-12T11:20:59;7.30;99.90
15072;DHT22;7635;56.696;13.002;2023-02-12T11:23:28;7.30;99.90
15072;DHT22;7635;56.696;13.002;2023-02-12T11:25:58;7.30;99.90
15072;DHT22;7635;56.696;13.002;2023-02-12T11:28:25;7.40;99.90
15072;DHT22;7635;56.696;13.002;2023-02-12T11:30:55;7.40;99.90
15072;DHT22;7635;56.696;13.002;2023-02-12T11:33:29;7.40;99.90
15072;DHT22;7635;56.696;13.002;2023-02-12T11:35:58;7.40;99.90
15072;DHT22;7635;56.696;13.002;2023-02-12T11:38:29;7.50;99.90
15072;DHT22;7635;56.696;13.002;2023-02-12T11:41:00;7.50;99.90
15072;DHT22;7635;56.696;13.002;2023-02-12T11:43:28;7.50;99.90
15072;DHT22;7635;56.696;13.002;2023-02-12T11:45:58;7.60;99.90
15072;DHT22;7635;56.696;13.002;2023-02-12T11:48:29;7.60;99.90
15072;DHT22;7635;56.696;13.002;2023-02-12T11:51:00;7.60;99.90
15072;DHT22;7635;56.696;13.002;2023-02-12T11:53:29;7.70;99.90
15072;DHT22;7635;56.696;13.002;2023-02-12T11:55:59;7.70;99.90
15072;DHT22;7635;56.696;13.002;2023-02-12T11:58:27;7.80;99.90
15072;DHT22;7635;56.696;13.002;2023-02-12T12:01:15;7.90;99.90
15072;DHT22;7635;56.696;13.002;2023-02-12T12:03:51;7.90;99.90
15072;DHT22;7635;56.696;13.002;2023-02-12T12:06:25;7.90;99.90
15072;DHT22;7635;56.696;13.002;2023-02-12T12:09:03;7.90;99.90
15072;DHT22;7635;56.696;13.002;2023-02-12T12:11:40;7.90;99.90
15072;DHT22;7635;56.696;13.002;2023-02-12T12:14:15;7.90;99.90
15072;DHT22;7635;56.696;13.002;2023-02-12T12:16:52;7.90;99.90
15072;DHT22;7635;56.696;13.002;2023-02-12T12:19:41;7.90;99.90
15072;DHT22;7635;56.696;13.002;2023-02-12T12:22:26;7.90;99.90
15072;DHT22;7635;56.696;13.002;2023-02-12T12:24:56;7.90;99.90
15072;DHT22;7635;56.696;13.002;2023-02-12T12:27:32;7.90;99.90
15072;DHT22;7635;56.696;13.002;2023-02-12T12:30:22;7.90;99.90
15072;DHT22;7635;56.696;13.002;2023-02-12T12:32:55;7.90;99.90
15072;DHT22;7635;56.696;13.002;2023-02-12T12:35:31;8.00;99.90
15072;DHT22;7635;56.696;13.002;2023-02-12T12:38:07;8.00;99.90
15072;DHT22;7635;56.696;13.002;2023-02-12T12:40:45;8.00;99.90
15072;DHT22;7635;56.696;13.002;2023-02-12T12:43:23;8.10;99.90
15072;DHT22;7635;56.696;13.002;2023-02-12T12:46:10;8.10;99.90
15072;DHT22;7635;56.696;13.002;2023-02-12T12:49:11;8.10;99.90
15072;DHT22;7635;56.696;13.002;2023-02-12T12:52:07;8.10;99.90
15072;DHT22;7635;56.696;13.002;2023-02-12T12:54:50;8.10;99.90
15072;DHT22;7635;56.696;13.002;2023-02-12T12:57:32;8.20;99.90
15072;DHT22;7635;56.696;13.002;2023-02-12T13:00:13;8.20;99.90
15072;DHT22;7635;56.696;13.002;2023-02-12T13:03:03;8.20;99.90
15072;DHT22;7635;56.696;13.002;2023-02-12T13:06:06;8.10;99.90
15072;DHT22;7635;56.696;13.002;2023-02-12T13:08:55;8.10;99.90
15072;DHT22;7635;56.696;13.002;2023-02-12T13:11:37;8.10;99.90
15072;DHT22;7635;56.696;13.002;2023-02-12T13:14:18;8.10;99.90
15072;DHT22;7635;56.696;13.002;2023-02-12T13:16:53;8.10;99.90
15072;DHT22;7635;56.696;13.002;2023-02-12T13:19:35;8.10;99.90
15072;DHT22;7635;56.696;13.002;2023-02-12T13:22:11;8.10;99.90
15072;DHT22;7635;56.696;13.002;2023-02-12T13:24:44;8.10;99.90
15072;DHT22;7635;56.696;13.002;2023-02-12T13:27:15;8.10;99.90
15072;DHT22;7635;56.696;13.002;2023-02-12T13:29:45;8.10;99.90
15072;DHT22;7635;56.696;13.002;2023-02-12T13:32:17;8.10;99.90
15072;DHT22;7635;56.696;13.002;2023-02-12T13:34:45;8.10;99.90
15072;DHT22;7635;56.696;13.002;2023-02-12T13:37:18;8.00;99.90
15072;DHT22;7635;56.696;13.002;2023-02-12T13:39:48;8.00;99.90
15072;DHT22;7635;56.696;13.002;2023-02-12T13:42:27;8.00;99.90
15072;DHT22;7635;56.696;13.002;2023-02-12T13:45:00;8.00;99.90
15072;DHT22;7635;56.696;13.002;2023-02-12T13:47:38;8.00;99.90
15072;DHT22;7635;56.696;13.002;2023-02-12T13:50:19;7.90;99.90
15072;DHT22;7635;56.696;13.002;2023-02-12T13:52:55;8.00;99.90
15072;DHT22;7635;56.696;13.002;2023-02-12T13:55:30;8.00;99.90
15072;DHT22;7635;56.696;13.002;2023-02-12T14:01:04;8.00;99.90
15072;DHT22;7635;56.696;13.002;2023-02-12T14:03:32;8.00;99.90
15072;DHT22;7635;56.696;13.002;2023-02-12T14:06:08;8.00;99.90
15072;DHT22;7635;56.696;13.002;2023-02-12T14:08:44;7.90;99.90
15072;DHT22;7635;56.696;13.002;2023-02-12T14:11:15;7.90;99.90
15072;DHT22;7635;56.696;13.002;2023-02-12T14:13:48;7.90;99.90
15072;DHT22;7635;56.696;13.002;2023-02-12T14:16:36;7.90;99.90
15072;DHT22;7635;56.696;13.002;2023-02-12T14:19:37;7.90;99.90
15072;DHT22;7635;56.696;13.002;2023-02-12T14:22:12;7.90;99.90
15072;DHT22;7635;56.696;13.002;2023-02-12T14:24:50;7.80;99.90
15072;DHT22;7635;56.696;13.002;2023-02-12T14:27:35;7.80;99.90
15072;DHT22;7635;56.696;13.002;2023-02-12T14:30:27;7.70;99.90
15072;DHT22;7635;56.696;13.002;2023-02-12T14:35:41;7.70;99.90
15072;DHT22;7635;56.696;13.002;2023-02-12T14:41:23;7.70;99.90
15072;DHT22;7635;56.696;13.002;2023-02-12T14:44:44;7.60;99.90
15072;DHT22;7635;56.696;13.002;2023-02-12T14:49:58;7.70;99.90
15072;DHT22;7635;56.696;13.002;2023-02-12T14:52:30;7.60;99.90
15072;DHT22;7635;56.696;13.002;2023-02-12T14:54:59;7.70;99.90
15072;DHT22;7635;56.696;13.002;2023-02-12T14:57:30;7.60;99.90
15072;DHT22;7635;56.696;13.002;2023-02-12T15:00:03;7.60;99.90
15072;DHT22;7635;56.696;13.002;2023-02-12T15:02:33;7.60;99.90
15072;DHT22;7635;56.696;13.002;2023-02-12T15:05:12;7.60;99.90
15072;DHT22;7635;56.696;13.002;2023-02-12T15:07:46;7.60;99.90
15072;DHT22;7635;56.696;13.002;2023-02-12T15:10:21;7.60;99.90
15072;DHT22;7635;56.696;13.002;2023-02-12T15:13:01;7.60;99.90
15072;DHT22;7635;56.696;13.002;2023-02-12T15:15:33;7.60;99.90
15072;DHT22;7635;56.696;13.002;2023-02-12T15:18:03;7.50;99.90
15072;DHT22;7635;56.696;13.002;2023-02-12T15:20:36;7.50;99.90
15072;DHT22;7635;56.696;13.002;2023-02-12T15:23:32;7.50;99.90
15072;DHT22;7635;56.696;13.002;2023-02-12T15:25:59;7.40;99.90
15072;DHT22;7635;56.696;13.002;2023-02-12T15:28:29;7.40;99.90
15072;DHT22;7635;56.696;13.002;2023-02-12T15:30:59;7.40;99.90
15072;DHT22;7635;56.696;13.002;2023-02-12T15:33:28;7.30;99.90
15072;DHT22;7635;56.696;13.002;2023-02-12T15:35:57;7.30;99.90
15072;DHT22;7635;56.696;13.002;2023-02-12T15:38:29;7.30;99.90
15072;DHT22;7635;56.696;13.002;2023-02-12T15:40:58;7.20;99.90
15072;DHT22;7635;56.696;13.002;2023-02-12T15:43:32;7.30;99.90
15072;DHT22;7635;56.696;13.002;2023-02-12T15:46:12;7.20;99.90
15072;DHT22;7635;56.696;13.002;2023-02-12T15:48:54;7.20;99.90
15072;DHT22;7635;56.696;13.002;2023-02-12T15:51:26;7.20;99.90
15072;DHT22;7635;56.696;13.002;2023-02-12T15:54:00;7.10;99.90
15072;DHT22;7635;56.696;13.002;2023-02-12T15:56:32;7.10;99.90
15072;DHT22;7635;56.696;13.002;2023-02-12T15:59:01;7.10;99.90
15072;DHT22;7635;56.696;13.002;2023-02-12T16:01:34;7.00;99.90
15072;DHT22;7635;56.696;13.002;2023-02-12T16:04:05;7.00;99.90
15072;DHT22;7635;56.696;13.002;2023-02-12T16:06:40;6.90;99.90
15072;DHT22;7635;56.696;13.002;2023-02-12T16:09:12;6.90;99.90
15072;DHT22;7635;56.696;13.002;2023-02-12T16:11:42;6.80;99.90
15072;DHT22;7635;56.696;13.002;2023-02-12T16:14:19;6.80;99.90
15072;DHT22;7635;56.696;13.002;2023-02-12T16:16:50;6.70;99.90
15072;DHT22;7635;56.696;13.002;2023-02-12T16:19:21;6.60;99.90
15072;DHT22;7635;56.696;13.002;2023-02-12T16:21:50;6.60;99.90
15072;DHT22;7635;56.696;13.002;2023-02-12T16:24:27;6.50;99.90
15072;DHT22;7635;56.696;13.002;2023-02-12T16:26:56;6.50;99.90
15072;DHT22;7635;56.696;13.002;2023-02-12T16:29:29;6.50;99.90